Time;durP1;ratioP1;P1;durP2;ratioP2;P2;SDS_P1;SDS_P2;PMS_P1;PMS_P2;Temp;Humidity;BMP_temperature;BMP_pressure;BME280_temperature;BME280_humidity;BME280_pressure;Samples;Min_cycle;Max_cycle;Signal;HPM_P1;HPM_P2
2022/06/05 00:00:53;;;;;;;;;;;;;;;16.61;100.00;95959.53;1043360;28;19978;-71
2022/06/05 00:01:44;;;;;;;;;;;;;;;16.60;100.00;95963.28;1047190;28;19939;-71
2022/06/05 00:02:48;;;;;;;;;;;;;;;16.64;100.00;95964.25;1039475;28;20326;-71
2022/06/05 00:03:40;;;;;;;;;;;;;;;16.63;100.00;95965.34;1039374;28;20365;-72
2022/06/05 00:04:44;;;;;;;;;;;;;;;16.61;100.00;95962.19;1043386;28;19974;-71
2022/06/05 00:05:41;;;;;;;;;;;;;;;16.60;100.00;95962.47;1039411;28;20126;-73
2022/06/05 00:06:33;;;;;;;;;;;;;;;16.55;100.00;95963.34;1047394;28;19920;-71
2022/06/05 00:07:24;;;;;;;;;;;;;;;16.54;100.00;95961.03;1039247;28;19920;-71
2022/06/05 00:08:31;;;;;;;;;;;;;;;16.52;100.00;95966.59;1043044;28;20468;-75
2022/06/05 00:09:38;;;;;;;;;;;;;;;16.49;100.00;95961.88;1039305;28;19919;-71
2022/06/05 00:10:28;;;;;;;;;;;;;;;16.46;100.00;95960.63;1035219;28;19924;-72
2022/06/05 00:11:17;;;;;;;;;;;;;;;16.46;100.00;95970.41;1036072;28;19925;-72
2022/06/05 00:12:08;;;;;;;;;;;;;;;16.43;100.00;95965.69;1039169;28;19971;-70
2022/06/05 00:13:14;;;;;;;;;;;;;;;16.41;100.00;95966.00;1039419;28;19980;-71
2022/06/05 00:14:03;;;;;;;;;;;;;;;16.39;100.00;95964.72;1035190;28;19921;-72
2022/06/05 00:14:52;;;;;;;;;;;;;;;16.37;100.00;95972.97;1041775;28;19971;-71
2022/06/05 00:15:41;;;;;;;;;;;;;;;16.36;100.00;95970.59;1042965;28;20294;-71
2022/06/05 00:16:30;;;;;;;;;;;;;;;16.35;100.00;95966.41;1043810;28;20313;-72
2022/06/05 00:17:20;;;;;;;;;;;;;;;16.33;100.00;95965.91;1043535;28;20321;-71
2022/06/05 00:18:09;;;;;;;;;;;;;;;16.32;100.00;95972.28;1043811;28;19924;-71
2022/06/05 00:18:58;;;;;;;;;;;;;;;16.29;100.00;95972.84;1039335;28;19975;-70
2022/06/05 00:19:48;;;;;;;;;;;;;;;16.27;100.00;95973.16;1039345;28;20006;-71
2022/06/05 00:20:37;;;;;;;;;;;;;;;16.27;100.00;95971.28;1046938;28;19943;-72
2022/06/05 00:21:26;;;;;;;;;;;;;;;16.25;100.00;95973.44;1047152;28;19923;-71
2022/06/05 00:22:15;;;;;;;;;;;;;;;16.24;100.00;95969.22;1043338;28;20338;-72
2022/06/05 00:23:04;;;;;;;;;;;;;;;16.26;100.00;95968.94;1043326;28;19976;-71
2022/06/05 00:23:53;;;;;;;;;;;;;;;16.23;100.00;95962.38;1046965;28;19978;-69
2022/06/05 00:24:42;;;;;;;;;;;;;;;16.23;100.00;95965.03;1047807;28;20027;-71
2022/06/05 00:25:35;;;;;;;;;;;;;;;16.24;100.00;95965.81;1043225;28;19939;-70
2022/06/05 00:26:24;;;;;;;;;;;;;;;16.25;100.00;95962.84;1039221;28;19969;-71
2022/06/05 00:27:16;;;;;;;;;;;;;;;16.26;100.00;95966.28;1039074;28;20425;-70
2022/06/05 00:28:11;;;;;;;;;;;;;;;16.28;100.00;95969.44;1042931;28;19928;-73
2022/06/05 00:29:18;;;;;;;;;;;;;;;16.32;100.00;95969.63;1043312;28;19931;-72
2022/06/05 00:30:12;;;;;;;;;;;;;;;16.33;100.00;95971.19;1043475;28;19994;-71
2022/06/05 00:31:12;;;;;;;;;;;;;;;16.32;100.00;95974.94;1035234;28;19951;-73
2022/06/05 00:32:11;;;;;;;;;;;;;;;16.31;100.00;95971.50;1030917;28;20295;-71
2022/06/05 00:33:06;;;;;;;;;;;;;;;16.30;100.00;95966.47;1034972;28;19977;-72
2022/06/05 00:33:56;;;;;;;;;;;;;;;16.30;100.00;95969.13;1040390;28;20405;-72
2022/06/05 00:34:45;;;;;;;;;;;;;;;16.21;100.00;95951.28;1039249;28;19956;-70
2022/06/05 00:35:35;;;;;;;;;;;;;;;16.27;100.00;95965.22;1038684;28;19968;-72
2022/06/05 00:36:28;;;;;;;;;;;;;;;16.26;100.00;95966.28;1038849;28;20413;-74
2022/06/05 00:37:35;;;;;;;;;;;;;;;16.25;100.00;95959.41;1043202;28;19920;-70
2022/06/05 00:38:40;;;;;;;;;;;;;;;16.22;100.00;95958.13;1047735;28;20464;-72
2022/06/05 00:39:32;;;;;;;;;;;;;;;16.22;100.00;95949.41;1035240;28;19993;-73
2022/06/05 00:40:32;;;;;;;;;;;;;;;16.20;100.00;95949.72;1030916;28;19948;-71
2022/06/05 00:41:33;;;;;;;;;;;;;;;16.17;100.00;95960.88;1030944;28;19929;-73
2022/06/05 00:42:23;;;;;;;;;;;;;;;16.16;100.00;95956.69;1035776;28;19948;-71
2022/06/05 00:43:12;;;;;;;;;;;;;;;16.14;100.00;95956.19;1039200;28;19947;-71
2022/06/05 00:44:04;;;;;;;;;;;;;;;16.14;100.00;95958.81;1038274;28;20004;-70
2022/06/05 00:44:57;;;;;;;;;;;;;;;16.15;100.00;95952.44;1039052;28;19995;-70
2022/06/05 00:45:46;;;;;;;;;;;;;;;16.13;100.00;95954.63;1039094;28;19959;-72
2022/06/05 00:46:35;;;;;;;;;;;;;;;16.13;100.00;95959.09;1039246;28;20429;-71
2022/06/05 00:47:25;;;;;;;;;;;;;;;16.13;100.00;95956.47;1038922;28;19912;-70
2022/06/05 00:48:14;;;;;;;;;;;;;;;16.13;100.00;95965.22;1042747;28;19944;-72
2022/06/05 00:49:03;;;;;;;;;;;;;;;16.11;100.00;95964.69;1038679;28;20087;-70
2022/06/05 00:50:11;;;;;;;;;;;;;;;16.10;100.00;95957.84;1035283;28;19976;-72
2022/06/05 00:51:00;;;;;;;;;;;;;;;16.10;100.00;95962.34;1043244;28;19916;-71
2022/06/05 00:51:49;;;;;;;;;;;;;;;16.09;100.00;95961.56;1042947;28;19959;-71
2022/06/05 00:52:40;;;;;;;;;;;;;;;16.08;100.00;95962.63;1043146;28;19935;-75
2022/06/05 00:53:29;;;;;;;;;;;;;;;16.08;100.00;95964.50;1042929;28;19978;-71
2022/06/05 00:54:18;;;;;;;;;;;;;;;16.08;100.00;95956.56;1043079;28;19995;-70
2022/06/05 00:55:09;;;;;;;;;;;;;;;16.09;100.00;95961.56;1042529;28;19973;-71
2022/06/05 00:55:58;;;;;;;;;;;;;;;16.11;100.00;95955.97;1041420;28;19971;-71
2022/06/05 00:56:50;;;;;;;;;;;;;;;16.10;100.00;95957.84;1042682;28;20027;-71
2022/06/05 00:57:39;;;;;;;;;;;;;;;16.09;100.00;95960.78;1043138;28;19996;-71
2022/06/05 00:58:28;;;;;;;;;;;;;;;16.06;100.00;95962.13;1043060;28;19998;-72
2022/06/05 00:59:18;;;;;;;;;;;;;;;16.07;100.00;95963.72;1039064;28;19923;-71
2022/06/05 01:00:10;;;;;;;;;;;;;;;16.07;100.00;95958.44;1038594;28;20378;-71
2022/06/05 01:00:59;;;;;;;;;;;;;;;16.07;100.00;95953.13;1042808;28;19967;-71
2022/06/05 01:01:48;;;;;;;;;;;;;;;16.06;100.00;95956.06;1038442;28;19920;-72
2022/06/05 01:02:38;;;;;;;;;;;;;;;16.05;100.00;95955.28;1035222;28;19997;-70
2022/06/05 01:03:27;;;;;;;;;;;;;;;16.05;100.00;95952.63;1034299;28;19989;-71
2022/06/05 01:04:16;;;;;;;;;;;;;;;16.03;100.00;95946.84;1038456;28;20026;-71
2022/06/05 01:05:04;;;;;;;;;;;;;;;16.03;100.00;95947.63;1041532;28;20448;-72
2022/06/05 01:05:53;;;;;;;;;;;;;;;16.01;100.00;95941.84;1035236;28;19969;-71
2022/06/05 01:06:42;;;;;;;;;;;;;;;16.00;100.00;95942.16;1038495;28;19924;-73
2022/06/05 01:07:31;;;;;;;;;;;;;;;15.97;100.00;95934.78;1046225;28;19924;-70
2022/06/05 01:08:20;;;;;;;;;;;;;;;15.96;100.00;95946.44;1043209;28;20035;-73
2022/06/05 01:09:10;;;;;;;;;;;;;;;15.97;100.00;95937.44;1039269;28;19944;-71
2022/06/05 01:10:02;;;;;;;;;;;;;;;15.94;100.00;95938.00;1042584;28;20008;-73
2022/06/05 01:10:59;;;;;;;;;;;;;;;15.91;100.00;95928.78;1038923;28;19923;-72
2022/06/05 01:11:54;;;;;;;;;;;;;;;15.91;100.00;95930.66;1038696;28;19996;-70
2022/06/05 01:12:43;;;;;;;;;;;;;;;15.89;100.00;95925.63;1047697;28;20392;-71
2022/06/05 01:13:41;;;;;;;;;;;;;;;15.89;100.00;95928.28;1047648;28;19927;-71
2022/06/05 01:14:42;;;;;;;;;;;;;;;15.87;100.00;95933.09;1039205;28;19924;-70
2022/06/05 01:15:46;;;;;;;;;;;;;;;15.85;100.00;95929.94;1038979;28;19926;-71
2022/06/05 01:16:44;;;;;;;;;;;;;;;15.84;100.00;95932.91;1047829;28;19929;-72
2022/06/05 01:17:42;;;;;;;;;;;;;;;15.83;100.00;95934.75;1043479;28;19920;-71
2022/06/05 01:18:31;;;;;;;;;;;;;;;15.84;100.00;95932.91;1039723;28;20082;-72
2022/06/05 01:19:20;;;;;;;;;;;;;;;15.84;100.00;95928.38;1043199;28;19935;-72
2022/06/05 01:20:18;;;;;;;;;;;;;;;15.85;100.00;95934.47;1046771;28;20061;-71
2022/06/05 01:21:07;;;;;;;;;;;;;;;15.84;100.00;95933.69;1047746;28;20335;-71
2022/06/05 01:22:02;;;;;;;;;;;;;;;15.85;100.00;95929.16;1042915;28;19923;-71
2022/06/05 01:23:12;;;;;;;;;;;;;;;15.86;100.00;95926.25;1043321;28;19939;-71
2022/06/05 01:24:11;;;;;;;;;;;;;;;15.85;100.00;95929.16;1042779;28;20035;-71
2022/06/05 01:25:05;;;;;;;;;;;;;;;15.82;100.00;95919.16;1039188;28;19984;-70
2022/06/05 01:26:05;;;;;;;;;;;;;;;15.82;100.00;95921.81;1039116;28;19923;-73
2022/06/05 01:27:00;;;;;;;;;;;;;;;15.82;100.00;95919.16;1039318;28;19955;-71
2022/06/05 01:27:51;;;;;;;;;;;;;;;15.81;100.00;95921.03;1039242;28;20004;-72
2022/06/05 01:28:44;;;;;;;;;;;;;;;15.80;100.00;95922.09;1039014;28;19920;-71
2022/06/05 01:29:35;;;;;;;;;;;;;;;15.79;100.00;95921.31;1039343;28;19967;-73
2022/06/05 01:30:24;;;;;;;;;;;;;;;15.77;100.00;95922.69;1038893;28;19919;-72
2022/06/05 01:31:14;;;;;;;;;;;;;;;15.75;100.00;95922.97;1039172;28;20286;-70
2022/06/05 01:32:05;;;;;;;;;;;;;;;15.74;100.00;95920.63;1042542;28;19968;-71
2022/06/05 01:32:54;;;;;;;;;;;;;;;15.73;100.00;95922.47;1047147;28;19922;-71
2022/06/05 01:34:12;;;;;;;;;;;;;;;15.72;100.00;95920.13;1043154;28;19951;-72
2022/06/05 01:35:04;;;;;;;;;;;;;;;15.69;100.00;95918.03;1037798;28;19944;-72
2022/06/05 01:36:01;;;;;;;;;;;;;;;15.70;100.00;95917.00;1039109;28;19916;-69
2022/06/05 01:37:13;;;;;;;;;;;;;;;15.69;100.00;95921.50;1039208;28;19916;-70
2022/06/05 01:38:16;;;;;;;;;;;;;;;15.68;100.00;95917.25;1039194;28;19957;-70
2022/06/05 01:39:06;;;;;;;;;;;;;;;15.68;100.00;95919.91;1038902;28;19927;-70
2022/06/05 01:40:02;;;;;;;;;;;;;;;15.68;100.00;95919.13;1039264;28;20072;-70
2022/06/05 01:40:53;;;;;;;;;;;;;;;15.66;100.00;95922.06;1038440;28;19916;-73
2022/06/05 01:41:46;;;;;;;;;;;;;;;15.65;100.00;95931.03;1043442;28;20046;-72
2022/06/05 01:42:41;;;;;;;;;;;;;;;15.65;100.00;95919.69;1039599;28;19971;-70
2022/06/05 01:43:34;;;;;;;;;;;;;;;15.64;100.00;95921.53;1044204;28;19955;-73
2022/06/05 01:44:27;;;;;;;;;;;;;;;15.62;100.00;95913.09;1039478;28;20054;-70
2022/06/05 01:45:23;;;;;;;;;;;;;;;15.62;100.00;95914.97;1040002;28;20005;-71
2022/06/05 01:46:34;;;;;;;;;;;;;;;15.57;100.00;95916.63;1039981;28;19920;-72
2022/06/05 01:47:26;;;;;;;;;;;;;;;15.58;100.00;95917.41;1043910;28;19920;-71
2022/06/05 01:48:17;;;;;;;;;;;;;;;15.56;100.00;95907.13;1044067;28;20010;-71
2022/06/05 01:49:14;;;;;;;;;;;;;;;15.58;100.00;95904.19;1039683;28;20428;-72
2022/06/05 01:50:06;;;;;;;;;;;;;;;15.58;100.00;95909.47;1039933;28;19924;-71
2022/06/05 01:50:56;;;;;;;;;;;;;;;15.57;100.00;95906.03;1035609;28;20753;-70
2022/06/05 01:51:48;;;;;;;;;;;;;;;15.57;100.00;95906.03;1034960;28;20329;-70
2022/06/05 01:52:40;;;;;;;;;;;;;;;15.55;100.00;95904.75;1039488;28;19984;-70
2022/06/05 01:53:31;;;;;;;;;;;;;;;15.55;100.00;95905.53;1036065;28;19920;-69
2022/06/05 01:54:22;;;;;;;;;;;;;;;15.56;100.00;95901.06;1039500;28;19928;-70
2022/06/05 01:55:12;;;;;;;;;;;;;;;15.54;100.00;95913.78;1036360;28;19924;-70
2022/06/05 01:56:07;;;;;;;;;;;;;;;15.55;100.00;95916.13;1037027;28;19977;-71
2022/06/05 01:56:56;;;;;;;;;;;;;;;15.55;100.00;95904.75;1040090;28;19979;-71
2022/06/05 01:57:45;;;;;;;;;;;;;;;15.55;100.00;95904.75;1044311;28;19928;-71
2022/06/05 01:58:36;;;;;;;;;;;;;;;15.54;100.00;95914.56;1040338;28;20414;-73
2022/06/05 01:59:43;;;;;;;;;;;;;;;15.54;100.00;95908.47;1039602;28;20339;-70
2022/06/05 02:00:32;;;;;;;;;;;;;;;15.52;100.00;95902.69;1044567;28;19959;-72
2022/06/05 02:01:22;;;;;;;;;;;;;;;15.52;100.00;95900.03;1044036;28;19924;-70
2022/06/05 02:02:13;;;;;;;;;;;;;;;15.50;100.00;95894.28;1040961;28;19920;-71
2022/06/05 02:03:21;;;;;;;;;;;;;;;15.49;100.00;95893.50;1044281;28;20051;-70
2022/06/05 02:04:10;;;;;;;;;;;;;;;15.49;100.00;95890.03;1040370;28;20279;-70
2022/06/05 02:05:01;;;;;;;;;;;;;;;15.48;100.00;95883.19;1044338;28;19974;-71
2022/06/05 02:05:49;;;;;;;;;;;;;;;15.47;100.00;95886.91;1048586;28;19920;-70
2022/06/05 02:06:40;;;;;;;;;;;;;;;15.46;100.00;95882.69;1048874;28;20086;-73
2022/06/05 02:07:30;;;;;;;;;;;;;;;15.45;100.00;95883.75;1048904;28;19961;-71
2022/06/05 02:08:37;;;;;;;;;;;;;;;15.43;100.00;95880.66;1044416;28;20428;-72
2022/06/05 02:09:32;;;;;;;;;;;;;;;15.41;100.00;95877.50;1040271;28;19920;-72
2022/06/05 02:10:22;;;;;;;;;;;;;;;15.41;100.00;95882.78;1044333;28;20034;-71
2022/06/05 02:11:11;;;;;;;;;;;;;;;15.39;100.00;95887.56;1040679;28;19984;-71
2022/06/05 02:12:01;;;;;;;;;;;;;;;15.39;100.00;95887.56;1039927;28;19923;-71
2022/06/05 02:12:50;;;;;;;;;;;;;;;15.39;100.00;95882.28;1047996;28;19966;-71
2022/06/05 02:13:39;;;;;;;;;;;;;;;15.37;100.00;95887.09;1048762;28;19943;-71
2022/06/05 02:14:28;;;;;;;;;;;;;;;15.35;100.00;95887.34;1044334;28;19928;-71
2022/06/05 02:15:17;;;;;;;;;;;;;;;15.31;100.00;95878.44;1040066;28;19920;-71
2022/06/05 02:16:06;;;;;;;;;;;;;;;15.31;100.00;95881.88;1043509;28;20317;-71
2022/06/05 02:16:55;;;;;;;;;;;;;;;15.31;100.00;95884.50;1043646;28;19923;-70
2022/06/05 02:17:44;;;;;;;;;;;;;;;15.28;100.00;95885.06;1044351;28;19943;-70
2022/06/05 02:18:33;;;;;;;;;;;;;;;15.28;100.00;95885.06;1043519;28;19919;-69
2022/06/05 02:19:22;;;;;;;;;;;;;;;15.29;100.00;95881.38;1040155;28;19963;-72
2022/06/05 02:20:11;;;;;;;;;;;;;;;15.29;100.00;95880.56;1039284;28;19990;-70
2022/06/05 02:21:01;;;;;;;;;;;;;;;15.28;100.00;95879.00;1035480;28;20671;-72
2022/06/05 02:21:50;;;;;;;;;;;;;;;15.28;100.00;95882.44;1035623;28;20067;-70
2022/06/05 02:22:41;;;;;;;;;;;;;;;15.26;100.00;95873.25;1042912;28;19936;-71
2022/06/05 02:23:33;;;;;;;;;;;;;;;15.24;100.00;95878.81;1043976;28;20541;-72
2022/06/05 02:24:22;;;;;;;;;;;;;;;15.24;100.00;95878.03;1039949;28;20057;-70
2022/06/05 02:25:12;;;;;;;;;;;;;;;15.23;100.00;95877.25;1039973;28;19957;-71
2022/06/05 02:26:09;;;;;;;;;;;;;;;15.23;100.00;95876.47;1039457;28;20071;-73
2022/06/05 02:26:59;;;;;;;;;;;;;;;15.23;100.00;95866.66;1040024;28;20019;-70
2022/06/05 02:27:48;;;;;;;;;;;;;;;15.23;100.00;95864.03;1040238;28;20493;-71
2022/06/05 02:28:37;;;;;;;;;;;;;;;15.22;100.00;95865.06;1043499;28;19988;-71
2022/06/05 02:29:26;;;;;;;;;;;;;;;15.23;100.00;95852.66;1043582;28;20472;-70
2022/06/05 02:30:15;;;;;;;;;;;;;;;15.21;100.00;95857.44;1040117;28;19948;-72
2022/06/05 02:31:04;;;;;;;;;;;;;;;15.21;100.00;95862.75;1039511;28;20027;-70
2022/06/05 02:32:11;;;;;;;;;;;;;;;15.21;100.00;95852.94;1043129;28;19990;-71
2022/06/05 02:33:04;;;;;;;;;;;;;;;15.15;100.00;95848.81;1044472;28;20371;-71
2022/06/05 02:33:53;;;;;;;;;;;;;;;15.18;100.00;95848.22;1041164;28;19963;-71
2022/06/05 02:35:00;;;;;;;;;;;;;;;15.17;100.00;95849.31;1044117;28;19975;-71
2022/06/05 02:36:04;;;;;;;;;;;;;;;15.17;100.00;95859.88;1048617;28;20088;-72
2022/06/05 02:37:03;;;;;;;;;;;;;;;15.16;100.00;95849.63;1048612;28;20455;-70
2022/06/05 02:37:58;;;;;;;;;;;;;;;15.19;100.00;95851.66;1040157;28;19924;-70
2022/06/05 02:39:07;;;;;;;;;;;;;;;15.20;100.00;95848.75;1040003;28;20416;-70
2022/06/05 02:39:59;;;;;;;;;;;;;;;15.17;100.00;95843.25;1035868;28;20521;-70
2022/06/05 02:40:48;;;;;;;;;;;;;;;15.17;100.00;95845.88;1045088;28;19920;-71
2022/06/05 02:41:45;;;;;;;;;;;;;;;15.17;100.00;95836.09;1043632;28;20046;-71
2022/06/05 02:42:33;;;;;;;;;;;;;;;15.15;100.00;95830.31;1039970;28;19916;-72
2022/06/05 02:43:37;;;;;;;;;;;;;;;15.16;100.00;95826.59;1044088;28;20354;-70
2022/06/05 02:44:29;;;;;;;;;;;;;;;15.15;100.00;95832.94;1039861;28;20019;-71
2022/06/05 02:45:21;;;;;;;;;;;;;;;15.14;100.00;95826.09;1039901;28;19966;-71
2022/06/05 02:46:11;;;;;;;;;;;;;;;15.17;100.00;95833.44;1044322;28;19920;-70
2022/06/05 02:47:15;;;;;;;;;;;;;;;15.17;100.00;95820.25;1035950;28;19965;-71
2022/06/05 02:48:27;;;;;;;;;;;;;;;15.15;100.00;95822.38;1036289;28;20486;-71
2022/06/05 02:49:26;;;;;;;;;;;;;;;15.15;100.00;95811.81;1041149;28;19920;-71
2022/06/05 02:50:24;;;;;;;;;;;;;;;15.18;100.00;95808.59;1044216;28;19967;-71
2022/06/05 02:51:20;;;;;;;;;;;;;;;15.17;100.00;95807.03;1040029;28;19920;-70
2022/06/05 02:52:09;;;;;;;;;;;;;;;15.16;100.00;95805.47;1040271;28;20037;-72
2022/06/05 02:52:59;;;;;;;;;;;;;;;15.16;100.00;95802.81;1039898;28;20318;-72
2022/06/05 02:53:48;;;;;;;;;;;;;;;15.16;100.00;95808.09;1043546;28;20038;-72
2022/06/05 02:54:38;;;;;;;;;;;;;;;15.16;100.00;95802.03;1039472;28;19931;-70
2022/06/05 02:55:28;;;;;;;;;;;;;;;15.16;100.00;95799.41;1035989;28;19959;-71
2022/06/05 02:56:17;;;;;;;;;;;;;;;15.16;100.00;95799.41;1043004;28;19978;-71
2022/06/05 02:57:06;;;;;;;;;;;;;;;15.15;100.00;95793.28;1043657;28;20365;-71
2022/06/05 02:57:55;;;;;;;;;;;;;;;15.16;100.00;95792.25;1039840;28;20011;-70
2022/06/05 02:58:44;;;;;;;;;;;;;;;15.15;100.00;95788.00;1039259;28;20023;-71
2022/06/05 02:59:33;;;;;;;;;;;;;;;15.16;100.00;95784.31;1042599;28;20027;-70
2022/06/05 03:00:23;;;;;;;;;;;;;;;15.16;100.00;95789.59;1045041;28;20005;-71
2022/06/05 03:03:27;;;;;;;;;;;;;;;15.14;100.00;95786.44;1041247;28;20032;-71
2022/06/05 03:04:16;;;;;;;;;;;;;;;15.15;100.00;95782.72;1043548;28;20371;-71
2022/06/05 03:05:05;;;;;;;;;;;;;;;15.16;100.00;95780.91;1039451;28;19995;-70
2022/06/05 03:05:54;;;;;;;;;;;;;;;15.16;100.00;95786.97;1039489;28;20282;-71
2022/06/05 03:06:43;;;;;;;;;;;;;;;15.18;100.00;95784.00;1034757;28;19993;-69
2022/06/05 03:07:32;;;;;;;;;;;;;;;15.17;100.00;95787.75;1031377;28;19916;-70
2022/06/05 03:08:21;;;;;;;;;;;;;;;15.16;100.00;95784.31;1037676;28;19919;-71
2022/06/05 03:09:10;;;;;;;;;;;;;;;15.15;100.00;95774.78;1043269;28;20025;-69
2022/06/05 03:09:59;;;;;;;;;;;;;;;15.15;100.00;95780.09;1035296;28;19911;-72
2022/06/05 03:10:48;;;;;;;;;;;;;;;15.16;100.00;95778.25;1035435;28;19951;-72
2022/06/05 03:11:37;;;;;;;;;;;;;;;15.13;100.00;95776.97;1037956;28;19919;-73
2022/06/05 03:12:29;;;;;;;;;;;;;;;15.13;100.00;95776.19;1035227;28;20016;-72
2022/06/05 03:13:18;;;;;;;;;;;;;;;15.12;100.00;95775.38;1046635;28;19982;-73
2022/06/05 03:14:07;;;;;;;;;;;;;;;15.13;100.00;95776.19;1047562;28;19979;-71
2022/06/05 03:15:01;;;;;;;;;;;;;;;15.11;100.00;95773.81;1047878;28;19982;-71
2022/06/05 03:15:50;;;;;;;;;;;;;;;15.11;100.00;95773.81;1043996;28;19928;-71
2022/06/05 03:16:39;;;;;;;;;;;;;;;15.11;100.00;95773.03;1043736;28;19927;-74
2022/06/05 03:17:29;;;;;;;;;;;;;;;15.10;100.00;95769.63;1039623;28;20428;-72
2022/06/05 03:18:18;;;;;;;;;;;;;;;15.09;100.00;95774.13;1035435;28;20469;-71
2022/06/05 03:19:07;;;;;;;;;;;;;;;15.10;100.00;95772.25;1039005;28;20171;-70
2022/06/05 03:19:56;;;;;;;;;;;;;;;15.11;100.00;95779.09;1043352;28;19990;-73
2022/06/05 03:20:45;;;;;;;;;;;;;;;15.12;100.00;95775.38;1039423;28;20146;-73
2022/06/05 03:21:34;;;;;;;;;;;;;;;15.13;100.00;95774.31;1038808;28;19963;-72
2022/06/05 03:22:23;;;;;;;;;;;;;;;15.15;100.00;95774.03;1043078;28;19924;-70
2022/06/05 03:23:12;;;;;;;;;;;;;;;15.16;100.00;95776.38;1039475;28;20306;-70
2022/06/05 03:24:01;;;;;;;;;;;;;;;15.17;100.00;95772.66;1038980;28;20028;-70
2022/06/05 03:24:50;;;;;;;;;;;;;;;15.18;100.00;95771.56;1042771;28;19988;-73
2022/06/05 03:25:40;;;;;;;;;;;;;;;15.19;100.00;95769.72;1047239;28;19977;-72
2022/06/05 03:26:29;;;;;;;;;;;;;;;15.21;100.00;95768.34;1039327;28;19924;-72
2022/06/05 03:27:19;;;;;;;;;;;;;;;15.21;100.00;95765.72;1039261;28;19984;-70
2022/06/05 03:28:08;;;;;;;;;;;;;;;15.21;100.00;95763.06;1039473;28;20437;-71
2022/06/05 03:28:56;;;;;;;;;;;;;;;15.21;100.00;95765.72;1041760;28;20488;-75
2022/06/05 03:29:46;;;;;;;;;;;;;;;15.22;100.00;95767.28;1042920;28;19915;-73
2022/06/05 03:30:38;;;;;;;;;;;;;;;15.22;100.00;95764.63;1039461;28;19955;-73
2022/06/05 03:31:27;;;;;;;;;;;;;;;15.23;100.00;95768.84;1042777;28;19932;-69
2022/06/05 03:32:16;;;;;;;;;;;;;;;15.23;100.00;95768.84;1041145;28;19920;-69
2022/06/05 03:33:05;;;;;;;;;;;;;;;15.28;100.00;95763.47;1043355;28;19986;-74
2022/06/05 03:33:55;;;;;;;;;;;;;;;15.30;100.00;95765.84;1047216;28;20046;-72
2022/06/05 03:34:44;;;;;;;;;;;;;;;15.29;100.00;95757.13;1043580;28;20400;-71
2022/06/05 03:35:39;;;;;;;;;;;;;;;15.27;100.00;95759.25;1035174;28;20291;-73
2022/06/05 03:36:28;;;;;;;;;;;;;;;15.27;100.00;95756.63;1035390;28;20332;-72
2022/06/05 03:37:17;;;;;;;;;;;;;;;15.29;100.00;95754.47;1039317;28;19984;-73
2022/06/05 03:38:07;;;;;;;;;;;;;;;15.30;100.00;95757.91;1035161;28;20359;-73
2022/06/05 03:38:56;;;;;;;;;;;;;;;15.29;100.00;95745.75;1035295;28;19941;-71
2022/06/05 03:39:46;;;;;;;;;;;;;;;15.30;100.00;95757.91;1038604;28;20047;-74
2022/06/05 03:40:35;;;;;;;;;;;;;;;15.29;100.00;95751.84;1039444;28;19909;-71
2022/06/05 03:41:23;;;;;;;;;;;;;;;15.29;100.00;95748.38;1042672;28;20034;-73
2022/06/05 03:42:12;;;;;;;;;;;;;;;15.31;100.00;95756.81;1043685;28;20290;-71
2022/06/05 03:43:01;;;;;;;;;;;;;;;15.32;100.00;95759.19;1047383;28;19920;-72
2022/06/05 03:43:50;;;;;;;;;;;;;;;15.35;100.00;95757.03;1043655;28;20782;-71
2022/06/05 03:44:40;;;;;;;;;;;;;;;15.37;100.00;95754.88;1043623;28;20477;-72
2022/06/05 03:45:29;;;;;;;;;;;;;;;15.38;100.00;95751.16;1042988;28;19916;-71
2022/06/05 03:46:18;;;;;;;;;;;;;;;15.39;100.00;95753.50;1043624;28;19927;-72
2022/06/05 03:47:07;;;;;;;;;;;;;;;15.42;100.00;95746.84;1047153;28;19969;-71
2022/06/05 03:47:55;;;;;;;;;;;;;;;15.47;100.00;95757.34;1043810;28;19927;-73
2022/06/05 03:48:44;;;;;;;;;;;;;;;15.48;100.00;95751.75;1035330;28;19936;-71
2022/06/05 03:49:33;;;;;;;;;;;;;;;15.49;100.00;95750.69;1043493;28;20040;-71
2022/06/05 03:50:22;;;;;;;;;;;;;;;15.50;100.00;95749.59;1031964;28;19921;-69
2022/06/05 03:51:16;;;;;;;;;;;;;;;15.51;100.00;95753.81;1034576;28;20445;-69
2022/06/05 03:52:05;;;;;;;;;;;;;;;15.52;100.00;95751.94;1038967;28;19943;-71
2022/06/05 03:52:54;;;;;;;;;;;;;;;15.54;100.00;95749.78;1042841;28;20534;-72
2022/06/05 03:53:43;;;;;;;;;;;;;;;15.55;100.00;95749.50;1039372;28;19956;-70
2022/06/05 03:54:33;;;;;;;;;;;;;;;15.54;100.00;95744.50;1038586;28;20007;-70
2022/06/05 03:55:22;;;;;;;;;;;;;;;15.54;100.00;95747.16;1043020;28;19975;-73
2022/06/05 03:56:13;;;;;;;;;;;;;;;15.53;100.00;95740.31;1041164;28;19924;-71
2022/06/05 03:57:02;;;;;;;;;;;;;;;15.54;100.00;95739.22;1039388;28;19924;-71
2022/06/05 03:57:51;;;;;;;;;;;;;;;15.54;100.00;95744.50;1039070;28;20466;-70
2022/06/05 03:58:41;;;;;;;;;;;;;;;15.51;100.00;95740.56;1038805;28;19939;-69
2022/06/05 03:59:29;;;;;;;;;;;;;;;15.52;100.00;95736.06;1038809;28;19920;-69
2022/06/05 04:00:19;;;;;;;;;;;;;;;15.54;100.00;95731.28;1042670;28;19919;-72
2022/06/05 04:01:09;;;;;;;;;;;;;;;15.52;100.00;95726.28;1042755;28;20259;-72
2022/06/05 04:01:58;;;;;;;;;;;;;;;15.52;100.00;95731.56;1039118;28;19971;-72
2022/06/05 04:02:47;;;;;;;;;;;;;;;15.54;100.00;95723.34;1039223;28;19990;-72
2022/06/05 04:03:36;;;;;;;;;;;;;;;15.55;100.00;95727.56;1038384;28;19973;-71
2022/06/05 04:04:25;;;;;;;;;;;;;;;15.53;100.00;95722.56;1035349;28;20048;-71
2022/06/05 04:05:15;;;;;;;;;;;;;;;15.54;100.00;95726.00;1042809;28;20247;-70
2022/06/05 04:06:04;;;;;;;;;;;;;;;15.55;100.00;95725.69;1042636;28;19924;-73
2022/06/05 04:06:56;;;;;;;;;;;;;;;15.56;100.00;95729.13;1035310;28;19924;-69
2022/06/05 04:07:45;;;;;;;;;;;;;;;15.58;100.00;95726.97;1034039;28;19981;-69
2022/06/05 04:08:34;;;;;;;;;;;;;;;15.59;100.00;95728.53;1038895;28;20024;-71
2022/06/05 04:09:23;;;;;;;;;;;;;;;15.65;100.00;95729.22;1039324;28;20755;-69
2022/06/05 04:10:13;;;;;;;;;;;;;;;15.63;100.00;95724.22;1039404;28;19980;-75
2022/06/05 04:11:09;;;;;;;;;;;;;;;15.66;100.00;95721.03;1043024;28;19924;-71
2022/06/05 04:11:58;;;;;;;;;;;;;;;15.66;100.00;95721.03;1039116;28;20488;-71
2022/06/05 04:12:47;;;;;;;;;;;;;;;15.69;100.00;95723.09;1038982;28;20580;-73
2022/06/05 04:13:36;;;;;;;;;;;;;;;15.71;100.00;95723.56;1042762;28;19931;-72
2022/06/05 04:14:25;;;;;;;;;;;;;;;15.74;100.00;95722.97;1039267;28;19923;-73
2022/06/05 04:15:13;;;;;;;;;;;;;;;15.75;100.00;95724.53;1040745;28;19924;-71
2022/06/05 04:16:12;;;;;;;;;;;;;;;15.80;100.00;95721.03;1046922;28;19927;-72
2022/06/05 04:17:01;;;;;;;;;;;;;;;15.84;100.00;95721.97;1043181;28;19923;-72
2022/06/05 04:17:50;;;;;;;;;;;;;;;15.89;100.00;95721.88;1043437;28;20457;-74
2022/06/05 04:18:39;;;;;;;;;;;;;;;15.92;100.00;95728.44;1042597;28;19923;-72
2022/06/05 04:19:28;;;;;;;;;;;;;;;15.96;100.00;95724.91;1039411;28;20007;-73
2022/06/05 04:20:17;;;;;;;;;;;;;;;16.00;100.00;95719.81;1038465;28;20008;-75
2022/06/05 04:21:07;;;;;;;;;;;;;;;16.01;100.00;95719.50;1038481;28;20470;-70
2022/06/05 04:21:56;;;;;;;;;;;;;;;16.05;100.00;95719.69;1034433;28;19995;-70
2022/06/05 04:22:45;;;;;;;;;;;;;;;16.08;100.00;95720.97;1038512;28;19982;-69
2022/06/05 04:23:34;;;;;;;;;;;;;;;16.10;100.00;95719.59;1042697;28;19920;-69
2022/06/05 04:24:23;;;;;;;;;;;;;;;16.12;100.00;95714.78;1039189;28;20011;-69
2022/06/05 04:25:13;;;;;;;;;;;;;;;16.17;100.00;95709.38;1042692;28;20070;-69
2022/06/05 04:26:05;;;;;;;;;;;;;;;16.15;100.00;95711.53;1047307;28;19943;-69
2022/06/05 04:26:54;;;;;;;;;;;;;;;16.15;100.00;95710.75;1047906;28;19943;-68
2022/06/05 04:27:43;;;;;;;;;;;;;;;16.15;100.00;95706.22;1043344;28;20008;-71
2022/06/05 04:28:31;;;;;;;;;;;;;;;16.14;100.00;95706.53;1043412;28;20015;-69
2022/06/05 04:29:20;;;;;;;;;;;;;;;16.20;100.00;95714.06;1046941;28;19958;-69